ITY3321 LIPZ-LIRN
Flight info
| Callsign | ITY3321 |
|---|---|
| Flight time | 0h 56m |
| Altitude | 19000 |
| Route | AKADO Y941 ARDAM/N0435F390 DCT LANLI DCT UTENO DCT OTRET DCT SUXUB DCT ERIKA |
| Aircraft | A320/M-SDE3FGHIRWY/LB1 |
Departure
| Time | 2026-04-27 13:55 |
|---|---|
| Airport | Venice Marco Polo Airport (LIPZ) |
Arrival
| Time | 2026-04-27 14:52 |
|---|---|
| Airport | Naples International Airport (LIRN) |
| Time | Latitude | Longitude | Altitude | Speed | Heading |
|---|---|---|---|---|---|
| 2026-04-27 13:31 | 45.50428 | 12.34224 | 16 ft | 0 kts | 268° |
| 2026-04-27 13:48 | 45.50428 | 12.34239 | 16 ft | 2 kts | 268° |
| 2026-04-27 13:48 | 45.50429 | 12.34263 | 16 ft | 2 kts | 268° |
| 2026-04-27 13:48 | 45.50429 | 12.34287 | 16 ft | 2 kts | 268° |
| 2026-04-27 13:48 | 45.50430 | 12.34311 | 16 ft | 2 kts | 257° |
| 2026-04-27 13:49 | 45.50438 | 12.34331 | 16 ft | 2 kts | 186° |
| 2026-04-27 13:49 | 45.50440 | 12.34331 | 16 ft | 0 kts | 182° |
| 2026-04-27 13:51 | 45.50434 | 12.34331 | 16 ft | 4 kts | 178° |
| 2026-04-27 13:52 | 45.50380 | 12.34345 | 16 ft | 12 kts | 171° |
| 2026-04-27 13:52 | 45.50277 | 12.34357 | 16 ft | 16 kts | 177° |
| 2026-04-27 13:52 | 45.50158 | 12.34359 | 16 ft | 18 kts | 190° |
| 2026-04-27 13:52 | 45.50046 | 12.34239 | 15 ft | 22 kts | 222° |
| 2026-04-27 13:53 | 45.49783 | 12.33905 | 14 ft | 25 kts | 222° |
| 2026-04-27 13:53 | 45.49663 | 12.33748 | 18 ft | 20 kts | 223° |
| 2026-04-27 13:53 | 45.49576 | 12.33633 | 16 ft | 14 kts | 222° |
| 2026-04-27 13:54 | 45.49501 | 12.33616 | 17 ft | 12 kts | 147° |
| 2026-04-27 13:54 | 45.49437 | 12.33715 | 15 ft | 13 kts | 126° |
| 2026-04-27 13:54 | 45.49443 | 12.33812 | 16 ft | 9 kts | 49° |
| 2026-04-27 13:54 | 45.49490 | 12.33874 | 14 ft | 10 kts | 41° |
| 2026-04-27 13:55 | 45.49669 | 12.34104 | 14 ft | 73 kts | 42° |
| 2026-04-27 13:55 | 45.50228 | 12.34821 | 14 ft | 139 kts | 42° |
| 2026-04-27 13:55 | 45.51064 | 12.35906 | 206 ft | 174 kts | 43° |
| 2026-04-27 13:55 | 45.51958 | 12.37104 | 885 ft | 180 kts | 46° |
| 2026-04-27 13:56 | 45.52871 | 12.38415 | 1482 ft | 196 kts | 50° |
| 2026-04-27 13:56 | 45.53532 | 12.40163 | 2077 ft | 206 kts | 79° |
| 2026-04-27 13:56 | 45.53521 | 12.42201 | 2825 ft | 207 kts | 99° |
| 2026-04-27 13:56 | 45.53307 | 12.44227 | 3528 ft | 211 kts | 98° |
| 2026-04-27 13:57 | 45.53086 | 12.46323 | 4222 ft | 216 kts | 98° |
| 2026-04-27 13:57 | 45.52863 | 12.48468 | 4920 ft | 221 kts | 98° |
| 2026-04-27 13:57 | 45.52636 | 12.50649 | 5720 ft | 223 kts | 100° |
| 2026-04-27 13:57 | 45.52042 | 12.52677 | 6476 ft | 225 kts | 133° |
| 2026-04-27 13:58 | 45.50729 | 12.53884 | 7038 ft | 235 kts | 169° |
| 2026-04-27 13:58 | 45.49048 | 12.53836 | 7436 ft | 254 kts | 190° |
| 2026-04-27 13:58 | 45.47223 | 12.53388 | 7923 ft | 275 kts | 192° |
| 2026-04-27 13:58 | 45.45303 | 12.52897 | 8717 ft | 283 kts | 191° |
| 2026-04-27 13:59 | 45.43341 | 12.52399 | 9620 ft | 288 kts | 191° |
| 2026-04-27 13:59 | 45.41350 | 12.51904 | 10393 ft | 297 kts | 191° |
| 2026-04-27 13:59 | 45.39231 | 12.51386 | 10726 ft | 320 kts | 191° |
| 2026-04-27 13:59 | 45.36979 | 12.50847 | 11272 ft | 333 kts | 191° |
| 2026-04-27 14:00 | 45.34689 | 12.50306 | 12018 ft | 339 kts | 191° |
| 2026-04-27 14:00 | 45.32323 | 12.49943 | 12796 ft | 345 kts | 183° |
| 2026-04-27 14:00 | 45.29904 | 12.49865 | 13575 ft | 350 kts | 183° |
| 2026-04-27 14:00 | 45.27451 | 12.49790 | 14292 ft | 354 kts | 182° |
| 2026-04-27 14:01 | 45.24972 | 12.49714 | 14976 ft | 359 kts | 182° |
| 2026-04-27 14:01 | 45.23312 | 12.49662 | 15420 ft | 361 kts | 182° |
| 2026-04-27 14:01 | 45.20781 | 12.49584 | 16093 ft | 366 kts | 182° |
| 2026-04-27 14:01 | 45.18214 | 12.49503 | 16761 ft | 370 kts | 182° |
| 2026-04-27 14:02 | 45.15618 | 12.49416 | 17426 ft | 375 kts | 182° |
| 2026-04-27 14:02 | 45.12994 | 12.49331 | 18083 ft | 379 kts | 182° |
| 2026-04-27 14:02 | 45.10340 | 12.49329 | 18686 ft | 383 kts | 180° |
| 2026-04-27 14:02 | 45.07660 | 12.49415 | 19265 ft | 387 kts | 179° |
| 2026-04-27 14:03 | 45.04954 | 12.49549 | 19864 ft | 390 kts | 179° |
| 2026-04-27 14:03 | 45.02227 | 12.49695 | 20437 ft | 393 kts | 179° |
| 2026-04-27 14:03 | 44.99477 | 12.49834 | 21031 ft | 397 kts | 179° |
| 2026-04-27 14:03 | 44.96701 | 12.49961 | 21614 ft | 400 kts | 180° |
| 2026-04-27 14:04 | 44.93905 | 12.50077 | 22204 ft | 404 kts | 180° |
| 2026-04-27 14:04 | 44.91082 | 12.50183 | 22798 ft | 407 kts | 180° |
| 2026-04-27 14:04 | 44.88241 | 12.50283 | 23363 ft | 410 kts | 180° |
| 2026-04-27 14:04 | 44.85376 | 12.50381 | 23893 ft | 413 kts | 180° |
| 2026-04-27 14:05 | 44.82529 | 12.50569 | 24355 ft | 417 kts | 174° |
| 2026-04-27 14:05 | 44.79636 | 12.51398 | 24813 ft | 422 kts | 164° |
| 2026-04-27 14:05 | 44.76941 | 12.52911 | 25239 ft | 425 kts | 153° |
| 2026-04-27 14:05 | 44.74354 | 12.54986 | 25662 ft | 429 kts | 150° |
| 2026-04-27 14:06 | 44.71766 | 12.57114 | 26084 ft | 432 kts | 150° |
| 2026-04-27 14:06 | 44.69154 | 12.59252 | 26501 ft | 435 kts | 150° |
| 2026-04-27 14:06 | 44.66517 | 12.61393 | 26903 ft | 438 kts | 150° |
| 2026-04-27 14:06 | 44.63864 | 12.63536 | 27294 ft | 441 kts | 150° |
| 2026-04-27 14:07 | 44.61230 | 12.65660 | 27682 ft | 444 kts | 150° |
| 2026-04-27 14:07 | 44.58548 | 12.67827 | 28081 ft | 446 kts | 150° |
| 2026-04-27 14:07 | 44.55845 | 12.70013 | 28474 ft | 449 kts | 150° |
| 2026-04-27 14:07 | 44.53120 | 12.72212 | 28842 ft | 452 kts | 150° |
| 2026-04-27 14:08 | 44.50388 | 12.74416 | 29206 ft | 454 kts | 150° |
| 2026-04-27 14:08 | 44.47641 | 12.76627 | 29560 ft | 457 kts | 150° |
| 2026-04-27 14:08 | 44.44879 | 12.78849 | 29921 ft | 460 kts | 150° |
| 2026-04-27 14:08 | 44.42102 | 12.81090 | 30252 ft | 462 kts | 150° |
| 2026-04-27 14:09 | 44.39310 | 12.83344 | 30546 ft | 464 kts | 150° |
| 2026-04-27 14:09 | 44.36505 | 12.85602 | 30832 ft | 466 kts | 150° |
| 2026-04-27 14:09 | 44.33691 | 12.87862 | 31118 ft | 467 kts | 150° |
| 2026-04-27 14:09 | 44.30868 | 12.90123 | 31396 ft | 469 kts | 150° |
| 2026-04-27 14:10 | 44.28065 | 12.92364 | 31660 ft | 470 kts | 150° |
| 2026-04-27 14:10 | 44.25227 | 12.94630 | 32007 ft | 469 kts | 150° |
| 2026-04-27 14:10 | 44.22393 | 12.96889 | 32395 ft | 467 kts | 150° |
| 2026-04-27 14:10 | 44.19577 | 12.99138 | 32783 ft | 466 kts | 150° |
| 2026-04-27 14:11 | 44.16769 | 13.01381 | 33163 ft | 465 kts | 150° |
| 2026-04-27 14:11 | 44.13959 | 13.03616 | 33543 ft | 464 kts | 150° |
| 2026-04-27 14:11 | 44.11157 | 13.05842 | 33924 ft | 462 kts | 150° |
| 2026-04-27 14:11 | 44.08361 | 13.08059 | 34279 ft | 461 kts | 150° |
| 2026-04-27 14:12 | 44.05570 | 13.10266 | 34591 ft | 461 kts | 150° |
| 2026-04-27 14:12 | 44.02782 | 13.12469 | 34878 ft | 461 kts | 150° |
| 2026-04-27 14:12 | 44.00027 | 13.14649 | 35065 ft | 461 kts | 150° |
| 2026-04-27 14:13 | 43.94513 | 13.18994 | 35103 ft | 452 kts | 151° |
| 2026-04-27 14:13 | 43.88965 | 13.23050 | 35104 ft | 450 kts | 153° |
| 2026-04-27 14:14 | 43.83362 | 13.26961 | 35101 ft | 450 kts | 153° |
| 2026-04-27 14:14 | 43.77775 | 13.30899 | 35109 ft | 450 kts | 153° |
| 2026-04-27 14:15 | 43.72238 | 13.34856 | 35106 ft | 449 kts | 153° |
| 2026-04-27 14:15 | 43.66690 | 13.38834 | 35104 ft | 449 kts | 153° |
| 2026-04-27 14:16 | 43.61133 | 13.42802 | 35096 ft | 449 kts | 153° |
| 2026-04-27 14:16 | 43.55571 | 13.46743 | 35084 ft | 449 kts | 153° |
| 2026-04-27 14:17 | 43.50005 | 13.50671 | 35100 ft | 449 kts | 153° |
| 2026-04-27 14:17 | 43.44475 | 13.54576 | 35092 ft | 449 kts | 153° |
| 2026-04-27 14:18 | 43.38897 | 13.58514 | 35081 ft | 450 kts | 153° |
| 2026-04-27 14:18 | 43.33352 | 13.62422 | 35084 ft | 450 kts | 153° |
| 2026-04-27 14:19 | 43.27768 | 13.66339 | 35089 ft | 450 kts | 153° |
| 2026-04-27 14:19 | 43.22164 | 13.70176 | 35092 ft | 450 kts | 155° |
| 2026-04-27 14:20 | 43.16457 | 13.73730 | 35085 ft | 449 kts | 156° |
| 2026-04-27 14:20 | 43.10730 | 13.77188 | 35090 ft | 449 kts | 156° |
| 2026-04-27 14:21 | 43.05016 | 13.80699 | 35090 ft | 449 kts | 156° |
| 2026-04-27 14:21 | 42.99354 | 13.84217 | 35094 ft | 449 kts | 156° |
| 2026-04-27 14:22 | 42.93662 | 13.87755 | 35099 ft | 449 kts | 156° |
| 2026-04-27 14:22 | 42.87971 | 13.91279 | 35094 ft | 449 kts | 156° |
| 2026-04-27 14:23 | 42.82271 | 13.94789 | 35087 ft | 449 kts | 156° |
| 2026-04-27 14:23 | 42.76573 | 13.98284 | 35078 ft | 449 kts | 156° |
| 2026-04-27 14:24 | 42.70830 | 14.01632 | 35076 ft | 448 kts | 164° |
| 2026-04-27 14:24 | 42.64722 | 14.02991 | 35088 ft | 445 kts | 179° |
| 2026-04-27 14:25 | 42.58579 | 14.03376 | 35088 ft | 445 kts | 179° |
| 2026-04-27 14:25 | 42.52388 | 14.03789 | 35089 ft | 445 kts | 179° |
| 2026-04-27 14:26 | 42.46198 | 14.04194 | 35092 ft | 445 kts | 179° |
| 2026-04-27 14:26 | 42.40001 | 14.04600 | 35099 ft | 445 kts | 179° |
| 2026-04-27 14:27 | 42.33806 | 14.05006 | 35092 ft | 445 kts | 180° |
| 2026-04-27 14:27 | 42.27615 | 14.05409 | 34567 ft | 448 kts | 180° |
| 2026-04-27 14:27 | 42.24497 | 14.05612 | 33951 ft | 446 kts | 180° |
| 2026-04-27 14:28 | 42.21409 | 14.05816 | 33371 ft | 442 kts | 180° |
| 2026-04-27 14:28 | 42.18344 | 14.06020 | 32817 ft | 439 kts | 180° |
| 2026-04-27 14:28 | 42.15306 | 14.06219 | 32252 ft | 436 kts | 180° |
| 2026-04-27 14:28 | 42.12316 | 14.06412 | 31702 ft | 433 kts | 181° |
| 2026-04-27 14:29 | 42.09312 | 14.06605 | 31154 ft | 430 kts | 181° |
| 2026-04-27 14:29 | 42.06328 | 14.06799 | 30626 ft | 428 kts | 181° |
| 2026-04-27 14:29 | 42.03361 | 14.06993 | 30067 ft | 426 kts | 181° |
| 2026-04-27 14:29 | 42.00402 | 14.07186 | 29503 ft | 423 kts | 181° |
| 2026-04-27 14:30 | 41.97479 | 14.07377 | 28997 ft | 418 kts | 180° |
| 2026-04-27 14:30 | 41.94620 | 14.07562 | 28506 ft | 414 kts | 180° |
| 2026-04-27 14:30 | 41.91752 | 14.07747 | 28012 ft | 410 kts | 180° |
| 2026-04-27 14:30 | 41.88913 | 14.07911 | 27545 ft | 405 kts | 183° |
| 2026-04-27 14:31 | 41.86130 | 14.07606 | 27073 ft | 398 kts | 191° |
| 2026-04-27 14:31 | 41.83398 | 14.07079 | 26620 ft | 395 kts | 191° |
| 2026-04-27 14:31 | 41.80689 | 14.06563 | 26162 ft | 391 kts | 191° |
| 2026-04-27 14:31 | 41.77997 | 14.06054 | 25684 ft | 389 kts | 191° |
| 2026-04-27 14:32 | 41.75354 | 14.05556 | 25214 ft | 387 kts | 191° |
| 2026-04-27 14:32 | 41.72693 | 14.05055 | 24721 ft | 385 kts | 191° |
| 2026-04-27 14:32 | 41.70043 | 14.04554 | 24221 ft | 383 kts | 190° |
| 2026-04-27 14:32 | 41.67398 | 14.04074 | 23720 ft | 383 kts | 188° |
| 2026-04-27 14:33 | 41.64725 | 14.04147 | 23136 ft | 385 kts | 172° |
| 2026-04-27 14:33 | 41.62154 | 14.05123 | 22628 ft | 385 kts | 157° |
| 2026-04-27 14:33 | 41.59845 | 14.06939 | 22088 ft | 386 kts | 142° |
| 2026-04-27 14:33 | 41.57927 | 14.09435 | 21566 ft | 385 kts | 133° |
| 2026-04-27 14:34 | 41.56115 | 14.12077 | 21047 ft | 384 kts | 133° |
| 2026-04-27 14:34 | 41.54303 | 14.14709 | 20538 ft | 383 kts | 133° |
| 2026-04-27 14:34 | 41.52522 | 14.17290 | 20018 ft | 382 kts | 133° |
| 2026-04-27 14:34 | 41.50719 | 14.19902 | 19506 ft | 382 kts | 133° |
| 2026-04-27 14:35 | 41.48914 | 14.22513 | 18988 ft | 384 kts | 133° |
| 2026-04-27 14:35 | 41.47101 | 14.25136 | 18494 ft | 383 kts | 133° |
| 2026-04-27 14:35 | 41.45288 | 14.27748 | 17933 ft | 383 kts | 133° |
| 2026-04-27 14:35 | 41.43481 | 14.30355 | 17372 ft | 383 kts | 133° |
| 2026-04-27 14:36 | 41.41604 | 14.32858 | 16833 ft | 380 kts | 139° |
| 2026-04-27 14:36 | 41.39621 | 14.35174 | 16307 ft | 374 kts | 139° |
| 2026-04-27 14:36 | 41.37700 | 14.37416 | 15766 ft | 360 kts | 139° |
| 2026-04-27 14:36 | 41.35884 | 14.39540 | 15394 ft | 344 kts | 139° |
| 2026-04-27 14:37 | 41.34124 | 14.41596 | 15032 ft | 329 kts | 140° |
| 2026-04-27 14:37 | 41.32287 | 14.43275 | 14684 ft | 314 kts | 149° |
| 2026-04-27 14:37 | 41.30463 | 14.44780 | 14339 ft | 303 kts | 148° |
| 2026-04-27 14:37 | 41.28697 | 14.46230 | 13983 ft | 293 kts | 148° |
| 2026-04-27 14:38 | 41.26966 | 14.47578 | 13588 ft | 283 kts | 158° |
| 2026-04-27 14:38 | 41.25077 | 14.48063 | 13194 ft | 274 kts | 185° |
| 2026-04-27 14:38 | 41.23275 | 14.47391 | 12807 ft | 270 kts | 212° |
| 2026-04-27 14:38 | 41.21906 | 14.45746 | 12427 ft | 267 kts | 237° |
| 2026-04-27 14:39 | 41.20922 | 14.43651 | 12045 ft | 268 kts | 240° |
| 2026-04-27 14:39 | 41.19949 | 14.41547 | 11655 ft | 266 kts | 240° |
| 2026-04-27 14:39 | 41.18953 | 14.39472 | 11282 ft | 264 kts | 232° |
| 2026-04-27 14:39 | 41.17526 | 14.37978 | 10921 ft | 265 kts | 203° |
| 2026-04-27 14:40 | 41.15716 | 14.37619 | 10561 ft | 267 kts | 172° |
| 2026-04-27 14:40 | 41.14004 | 14.38504 | 10210 ft | 267 kts | 145° |
| 2026-04-27 14:40 | 41.12480 | 14.39924 | 9844 ft | 268 kts | 147° |
| 2026-04-27 14:40 | 41.10902 | 14.41243 | 9441 ft | 268 kts | 149° |
| 2026-04-27 14:41 | 41.09463 | 14.42777 | 9041 ft | 263 kts | 126° |
| 2026-04-27 14:41 | 41.08762 | 14.44957 | 8676 ft | 258 kts | 96° |
| 2026-04-27 14:41 | 41.08975 | 14.47266 | 8316 ft | 256 kts | 67° |
| 2026-04-27 14:41 | 41.09851 | 14.49285 | 7945 ft | 251 kts | 57° |
| 2026-04-27 14:42 | 41.10783 | 14.51239 | 7565 ft | 250 kts | 58° |
| 2026-04-27 14:42 | 41.11697 | 14.53154 | 7210 ft | 242 kts | 58° |
| 2026-04-27 14:42 | 41.12594 | 14.55035 | 6990 ft | 236 kts | 58° |
| 2026-04-27 14:42 | 41.13447 | 14.56824 | 6978 ft | 225 kts | 58° |
| 2026-04-27 14:43 | 41.14278 | 14.58575 | 6980 ft | 223 kts | 58° |
| 2026-04-27 14:43 | 41.14930 | 14.60428 | 6985 ft | 222 kts | 79° |
| 2026-04-27 14:43 | 41.14895 | 14.62427 | 6991 ft | 221 kts | 108° |
| 2026-04-27 14:43 | 41.14139 | 14.64176 | 6996 ft | 220 kts | 136° |
| 2026-04-27 14:44 | 41.12850 | 14.65221 | 6984 ft | 219 kts | 165° |
| 2026-04-27 14:44 | 41.11348 | 14.65533 | 6996 ft | 219 kts | 174° |
| 2026-04-27 14:44 | 41.09837 | 14.65766 | 7002 ft | 218 kts | 173° |
| 2026-04-27 14:44 | 41.08321 | 14.65978 | 6992 ft | 220 kts | 179° |
| 2026-04-27 14:45 | 41.06818 | 14.65679 | 6924 ft | 220 kts | 200° |
| 2026-04-27 14:45 | 41.05507 | 14.64692 | 6740 ft | 215 kts | 221° |
| 2026-04-27 14:45 | 41.04571 | 14.63167 | 6489 ft | 214 kts | 236° |
| 2026-04-27 14:45 | 41.03792 | 14.61489 | 6169 ft | 214 kts | 237° |
| 2026-04-27 14:46 | 41.03008 | 14.59802 | 5856 ft | 216 kts | 237° |
| 2026-04-27 14:46 | 41.02489 | 14.58685 | 5637 ft | 214 kts | 236° |
| 2026-04-27 14:46 | 41.01706 | 14.57005 | 5327 ft | 213 kts | 236° |
| 2026-04-27 14:46 | 41.00669 | 14.54791 | 4920 ft | 214 kts | 237° |
| 2026-04-27 14:47 | 40.99884 | 14.53113 | 4580 ft | 212 kts | 237° |
| 2026-04-27 14:47 | 40.99124 | 14.51485 | 4279 ft | 203 kts | 237° |
| 2026-04-27 14:47 | 40.98628 | 14.50424 | 4090 ft | 199 kts | 237° |
| 2026-04-27 14:47 | 40.97910 | 14.48891 | 3804 ft | 192 kts | 237° |
| 2026-04-27 14:48 | 40.97225 | 14.47430 | 3530 ft | 186 kts | 238° |
| 2026-04-27 14:48 | 40.95891 | 14.44584 | 3018 ft | 180 kts | 238° |
| 2026-04-27 14:48 | 40.95235 | 14.43186 | 2748 ft | 178 kts | 239° |
| 2026-04-27 14:49 | 40.94585 | 14.41799 | 2465 ft | 175 kts | 239° |
| 2026-04-27 14:49 | 40.93957 | 14.40462 | 2206 ft | 166 kts | 240° |
| 2026-04-27 14:49 | 40.93371 | 14.39216 | 1976 ft | 154 kts | 239° |
| 2026-04-27 14:49 | 40.92814 | 14.38030 | 1746 ft | 149 kts | 239° |
| 2026-04-27 14:50 | 40.92277 | 14.36888 | 1516 ft | 143 kts | 237° |
| 2026-04-27 14:50 | 40.91769 | 14.35806 | 1344 ft | 135 kts | 236° |
| 2026-04-27 14:50 | 40.91282 | 14.34770 | 1141 ft | 132 kts | 232° |
| 2026-04-27 14:50 | 40.90797 | 14.33740 | 940 ft | 132 kts | 231° |
| 2026-04-27 14:51 | 40.90319 | 14.32723 | 751 ft | 131 kts | 233° |
| 2026-04-27 14:51 | 40.89830 | 14.31687 | 570 ft | 134 kts | 234° |
| 2026-04-27 14:51 | 40.89336 | 14.30642 | 350 ft | 136 kts | 234° |
| 2026-04-27 14:51 | 40.88857 | 14.29618 | 254 ft | 118 kts | 235° |
| 2026-04-27 14:52 | 40.88561 | 14.29002 | 269 ft | 53 kts | 238° |
| 2026-04-27 14:52 | 40.88408 | 14.28666 | 279 ft | 36 kts | 239° |
| 2026-04-27 14:52 | 40.88274 | 14.28458 | 282 ft | 25 kts | 218° |
| 2026-04-27 14:52 | 40.88168 | 14.28381 | 288 ft | 10 kts | 205° |
| 2026-04-27 14:53 | 40.88128 | 14.28355 | 286 ft | 3 kts | 208° |
| 2026-04-27 14:53 | 40.88127 | 14.28354 | 286 ft | 0 kts | 208° |
| 2026-04-27 14:53 | 40.88099 | 14.28334 | 292 ft | 6 kts | 208° |
| 2026-04-27 14:53 | 40.88063 | 14.28356 | 287 ft | 9 kts | 112° |
| 2026-04-27 14:54 | 40.88050 | 14.28453 | 286 ft | 11 kts | 95° |
| 2026-04-27 14:54 | 40.88024 | 14.28531 | 287 ft | 10 kts | 151° |
| 2026-04-27 14:54 | 40.87965 | 14.28496 | 286 ft | 10 kts | 220° |
| 2026-04-27 14:54 | 40.87935 | 14.28420 | 290 ft | 9 kts | 274° |
| 2026-04-27 14:55 | 40.87943 | 14.28352 | 289 ft | 6 kts | 278° |
| 2026-04-27 14:55 | 40.87945 | 14.28341 | 289 ft | 0 kts | 278° |
| 2026-04-27 14:56 | 40.87946 | 14.28328 | 289 ft | 5 kts | 278° |
| 2026-04-27 14:57 | 40.87950 | 14.28292 | 290 ft | 3 kts | 277° |
| 2026-04-27 14:57 | 40.87951 | 14.28274 | 290 ft | 1 kts | 276° |
| 2026-04-27 14:57 | 40.87952 | 14.28266 | 290 ft | 1 kts | 276° |
| 2026-04-27 14:57 | 40.87954 | 14.28245 | 291 ft | 4 kts | 276° |
| 2026-04-27 14:58 | 40.87958 | 14.28198 | 293 ft | 7 kts | 277° |
| 2026-04-27 14:58 | 40.87955 | 14.28127 | 296 ft | 9 kts | 250° |
| 2026-04-27 14:58 | 40.87919 | 14.28059 | 294 ft | 8 kts | 232° |
| 2026-04-27 14:58 | 40.87884 | 14.28041 | 295 ft | 6 kts | 160° |
| 2026-04-27 14:59 | 40.87851 | 14.28075 | 295 ft | 6 kts | 141° |
| 2026-04-27 14:59 | 40.87841 | 14.28086 | 295 ft | 0 kts | 141° |